📊 Raw Sensor Data
Showing records 35401 to 35425 of 84,877 total
| ID | Distance (ft) | Battery V | Battery A | Int Temp (°F) | Int Humid (%) | Ext Temp (°F) | Solar V | RSSI | SNR | Time Stamp |
|---|---|---|---|---|---|---|---|---|---|---|
| 49489 | 15.6 | 3.72 | -5 | 63 | 49 | 64 | 0.00 | -71 | 8 | 08/17/2025 09:00 PM |
| 49488 | 15.6 | 3.69 | -5 | 64 | 50 | 64 | 0.00 | -71 | 8 | 08/17/2025 08:45 PM |
| 49487 | 15.6 | 3.70 | -5 | 65 | 51 | 65 | 0.00 | -70 | 8 | 08/17/2025 08:30 PM |
| 49486 | 15.6 | 3.70 | -5 | 66 | 53 | 65 | 1.10 | -70 | 8 | 08/17/2025 08:15 PM |
| 49485 | 15.6 | 3.69 | -7 | 69 | 54 | 66 | 1.60 | -70 | 8 | 08/17/2025 08:00 PM |
| 49484 | 15.7 | 3.71 | 0 | 74 | 52 | 69 | 4.50 | -69 | 8 | 08/17/2025 07:45 PM |
| 49483 | 15.7 | 3.88 | 0 | 76 | 51 | 72 | 4.50 | -70 | 8 | 08/17/2025 07:30 PM |
| 49482 | 15.7 | 3.88 | 0 | 77 | 53 | 72 | 4.60 | -69 | 8 | 08/17/2025 07:15 PM |
| 49481 | 15.7 | 3.97 | 0 | 80 | 53 | 74 | 4.50 | -69 | 8 | 08/17/2025 07:00 PM |
| 49480 | 15.8 | 3.83 | 0 | 84 | 51 | 77 | 5.10 | -70 | 8 | 08/17/2025 06:45 PM |
| 49479 | 15.8 | 3.83 | 0 | 87 | 50 | 78 | 5.10 | -70 | 7 | 08/17/2025 06:30 PM |
| 49478 | 15.8 | 3.84 | 0 | 89 | 49 | 79 | 5.10 | -69 | 7 | 08/17/2025 06:15 PM |
| 49477 | 15.8 | 3.83 | 0 | 90 | 48 | 81 | 5.10 | -72 | 7 | 08/17/2025 06:00 PM |
| 49476 | 15.8 | 3.83 | 0 | 90 | 48 | 81 | 5.10 | -69 | 7 | 08/17/2025 05:45 PM |
| 49475 | 15.8 | 4.07 | 0 | 91 | 47 | 82 | 5.10 | -70 | 7 | 08/17/2025 05:30 PM |
| 49474 | 15.8 | 3.83 | 0 | 91 | 47 | 83 | 5.10 | -70 | 8 | 08/17/2025 05:15 PM |
| 49473 | 15.8 | 3.83 | 0 | 92 | 46 | 83 | 5.10 | -69 | 7 | 08/17/2025 05:00 PM |
| 49472 | 15.8 | 3.83 | 0 | 93 | 46 | 84 | 5.10 | -73 | 8 | 08/17/2025 04:45 PM |
| 49471 | 15.8 | 3.83 | 0 | 93 | 45 | 83 | 5.10 | -69 | 7 | 08/17/2025 04:15 PM |
| 49470 | 15.8 | 3.83 | 0 | 93 | 44 | 84 | 5.10 | -70 | 8 | 08/17/2025 04:00 PM |
| 49469 | 15.8 | 3.83 | 0 | 92 | 44 | 81 | 5.10 | -70 | 8 | 08/17/2025 03:45 PM |
| 49468 | 15.8 | 3.83 | 0 | 93 | 43 | 83 | 5.10 | -69 | 8 | 08/17/2025 03:30 PM |
| 49467 | 15.8 | 3.83 | 0 | 93 | 43 | 82 | 5.10 | -71 | 8 | 08/17/2025 03:15 PM |
| 49466 | 15.7 | 3.83 | 0 | 92 | 43 | 80 | 5.10 | -71 | 7 | 08/17/2025 03:00 PM |
| 49465 | 15.8 | 4.08 | 0 | 92 | 42 | 82 | 5.10 | -71 | 8 | 08/17/2025 02:45 PM |